Time;durP1;ratioP1;P1;durP2;ratioP2;P2;SDS_P1;SDS_P2;PMS_P1;PMS_P2;Temp;Humidity;BMP_temperature;BMP_pressure;BME280_temperature;BME280_humidity;BME280_pressure;Samples;Min_cycle;Max_cycle;Signal;HPM_P1;HPM_P2
2021/10/18 00:01:59;;;;;;;11.57;10.47;;;;;;;7.81;100.00;98612.88;4967293;28;20674;-71
2021/10/18 00:04:27;;;;;;;10.47;9.47;;;;;;;7.87;100.00;98610.69;4956476;28;20239;-69
2021/10/18 00:06:55;;;;;;;11.20;10.10;;;;;;;7.84;100.00;98618.84;4973687;28;20216;-71
2021/10/18 00:09:23;;;;;;;10.60;9.60;;;;;;;7.79;100.00;98613.97;4967350;28;20217;-69
2021/10/18 00:11:53;;;;;;;10.57;9.67;;;;;;;7.75;100.00;98620.47;4940284;28;20212;-69
2021/10/18 00:14:21;;;;;;;10.30;9.37;;;;;;;7.70;100.00;98623.47;4969393;28;20230;-69
2021/10/18 00:16:49;;;;;;;10.23;9.23;;;;;;;7.70;100.00;98626.13;4953483;28;20665;-69
2021/10/18 00:19:17;;;;;;;11.47;10.47;;;;;;;7.74;100.00;98626.72;4959499;28;20237;-70
2021/10/18 00:21:45;;;;;;;10.73;9.73;;;;;;;7.69;100.00;98642.91;4965700;28;20209;-70
2021/10/18 00:24:14;;;;;;;10.50;9.60;;;;;;;7.73;100.00;98638.22;4970147;28;20545;-70
2021/10/18 00:26:42;;;;;;;10.97;9.90;;;;;;;7.70;100.00;98641.94;4961148;28;20211;-69
2021/10/18 00:29:11;;;;;;;10.20;9.20;;;;;;;7.64;100.00;98642.47;4944003;28;20218;-70
2021/10/18 00:31:39;;;;;;;9.93;9.00;;;;;;;7.68;100.00;98633.34;4928516;28;20283;-69
2021/10/18 00:34:07;;;;;;;10.27;9.30;;;;;;;7.63;100.00;98630.25;4968910;28;20210;-70
2021/10/18 00:36:36;;;;;;;11.43;10.23;;;;;;;7.67;100.00;98640.44;4969045;28;20228;-69
2021/10/18 00:39:04;;;;;;;11.77;10.57;;;;;;;7.65;100.00;98647.63;4967368;28;20426;-70
2021/10/18 00:41:33;;;;;;;9.83;8.93;;;;;;;7.68;100.00;98643.88;4976879;28;20206;-69
2021/10/18 00:44:01;;;;;;;10.97;9.97;;;;;;;7.65;100.00;98649.41;4955354;28;20331;-69
2021/10/18 00:46:32;;;;;;;10.53;9.53;;;;;;;7.61;100.00;98653.28;4973503;28;20206;-69
2021/10/18 00:49:00;;;;;;;10.93;9.97;;;;;;;7.59;100.00;98648.16;4934094;28;20430;-70
2021/10/18 00:51:28;;;;;;;10.60;9.60;;;;;;;7.56;100.00;98643.09;4976103;28;20213;-69
2021/10/18 00:53:57;;;;;;;10.43;9.47;;;;;;;7.66;100.00;98643.19;4971365;28;20443;-70
2021/10/18 00:56:26;;;;;;;10.97;9.87;;;;;;;7.64;100.00;98634.56;4943044;28;20506;-71
2021/10/18 00:58:56;;;;;;;10.13;9.23;;;;;;;7.63;100.00;98644.28;4965323;28;20238;-70
2021/10/18 01:01:24;;;;;;;12.03;10.93;;;;;;;7.56;100.00;98640.47;4962522;28;20439;-70
2021/10/18 01:03:56;;;;;;;10.43;9.63;;;;;;;7.52;100.00;98647.81;4941071;28;20400;-69
2021/10/18 01:06:24;;;;;;;11.43;10.37;;;;;;;7.50;100.00;98643.63;4968500;28;20630;-71
2021/10/18 01:08:52;;;;;;;13.37;12.17;;;;;;;7.54;100.00;98652.94;4975681;28;20244;-70
2021/10/18 01:11:20;;;;;;;12.37;11.20;;;;;;;7.49;100.00;98648.09;4970451;28;20205;-71
2021/10/18 01:13:48;;;;;;;12.33;11.13;;;;;;;7.46;100.00;98637.78;4976788;28;20212;-69
2021/10/18 01:16:16;;;;;;;11.97;10.47;;;;;;;7.50;100.00;98647.13;4961130;28;20316;-71
2021/10/18 01:18:44;;;;;;;12.47;11.37;;;;;;;7.39;100.00;98653.28;4942479;28;20380;-72
2021/10/18 01:21:13;;;;;;;12.30;10.70;;;;;;;7.41;100.00;98653.16;4969391;28;20213;-69
2021/10/18 01:23:42;;;;;;;11.57;10.57;;;;;;;7.41;100.00;98650.53;4962576;28;20236;-69
2021/10/18 01:26:10;;;;;;;12.90;11.60;;;;;;;7.36;100.00;98650.91;4971014;28;20222;-69
2021/10/18 01:28:38;;;;;;;11.33;10.30;;;;;;;7.39;100.00;98648.00;4975305;28;20749;-70
2021/10/18 01:31:06;;;;;;;11.93;10.83;;;;;;;7.31;100.00;98645.19;4947475;28;20221;-69
2021/10/18 01:33:34;;;;;;;11.67;10.57;;;;;;;7.35;100.00;98643.09;4941683;28;20403;-70
2021/10/18 01:36:02;;;;;;;11.67;10.57;;;;;;;7.25;100.00;98637.78;4956852;28;20586;-69
2021/10/18 01:38:31;;;;;;;11.33;10.23;;;;;;;7.27;100.00;98635.84;4970454;28;20867;-71
2021/10/18 01:40:59;;;;;;;12.40;11.20;;;;;;;7.31;100.00;98637.25;4970399;28;20259;-69
2021/10/18 01:43:27;;;;;;;12.60;11.40;;;;;;;7.20;100.00;98632.06;4963060;28;20217;-70
2021/10/18 01:45:55;;;;;;;12.07;10.97;;;;;;;7.21;100.00;98625.81;4962415;28;20230;-71
2021/10/18 01:48:23;;;;;;;12.50;11.30;;;;;;;7.12;100.00;98637.94;4922728;28;23226;-70
2021/10/18 01:50:51;;;;;;;12.73;11.57;;;;;;;7.10;100.00;98642.50;4973052;28;20206;-69
2021/10/18 01:53:19;;;;;;;12.17;11.07;;;;;;;7.12;100.00;98651.13;4961254;28;20307;-69
2021/10/18 01:55:49;;;;;;;11.30;10.20;;;;;;;7.08;100.00;98649.72;4979495;28;20240;-70
2021/10/18 01:58:17;;;;;;;11.70;10.70;;;;;;;7.06;100.00;98652.44;4975497;28;20213;-70
2021/10/18 02:00:45;;;;;;;12.27;11.00;;;;;;;7.07;100.00;98654.13;4961411;28;20221;-70
2021/10/18 02:03:14;;;;;;;12.23;11.13;;;;;;;7.05;100.00;98657.88;4932233;28;20263;-70
2021/10/18 02:05:42;;;;;;;12.97;11.77;;;;;;;7.07;100.00;98655.94;4959642;28;20225;-70
2021/10/18 02:08:10;;;;;;;12.57;11.37;;;;;;;7.06;100.00;98655.09;4975487;28;20205;-69
2021/10/18 02:10:38;;;;;;;12.10;10.90;;;;;;;7.07;100.00;98653.31;4980827;28;20577;-72
2021/10/18 02:13:07;;;;;;;11.30;10.40;;;;;;;7.14;100.00;98650.97;4961481;28;20555;-69
2021/10/18 02:15:36;;;;;;;12.23;11.13;;;;;;;7.09;100.00;98648.75;4979646;28;20257;-70
2021/10/18 02:18:04;;;;;;;12.87;11.67;;;;;;;7.07;100.00;98650.66;4952491;28;20280;-69
2021/10/18 02:20:32;;;;;;;12.77;11.67;;;;;;;7.07;100.00;98655.94;4942732;28;20276;-70
2021/10/18 02:23:00;;;;;;;13.13;11.47;;;;;;;7.04;100.00;98646.47;4968523;28;20598;-69
2021/10/18 02:25:28;;;;;;;12.67;11.47;;;;;;;7.06;100.00;98655.09;4967436;28;20450;-69
2021/10/18 02:27:56;;;;;;;13.13;11.77;;;;;;;7.12;100.00;98652.91;4974461;28;20206;-69
2021/10/18 02:30:26;;;;;;;13.30;12.10;;;;;;;7.08;100.00;98657.63;4961230;28;20225;-70
2021/10/18 02:32:54;;;;;;;15.33;13.87;;;;;;;7.18;100.00;98658.53;4960989;28;20214;-71
2021/10/18 02:35:22;;;;;;;15.23;13.73;;;;;;;7.17;100.00;98661.28;4928546;28;21974;-70
2021/10/18 02:37:50;;;;;;;13.57;12.23;;;;;;;7.15;100.00;98665.84;4975264;28;20701;-70
2021/10/18 02:40:18;;;;;;;15.63;14.00;;;;;;;7.27;100.00;98671.91;4924337;28;20542;-70
2021/10/18 02:42:46;;;;;;;19.60;16.80;;;;;;;7.36;100.00;98661.44;4975258;28;20213;-71
2021/10/18 02:45:14;;;;;;;20.90;17.47;;;;;;;7.30;100.00;98672.50;4962436;28;20553;-72
2021/10/18 02:47:43;;;;;;;19.23;15.67;;;;;;;7.46;100.00;98669.44;4959767;28;20224;-73
2021/10/18 02:50:11;;;;;;;19.13;17.17;;;;;;;7.43;100.00;98660.94;4972756;28;20210;-71
2021/10/18 02:52:39;;;;;;;17.57;15.07;;;;;;;7.48;100.00;98667.50;4958933;28;20213;-70
2021/10/18 02:55:08;;;;;;;20.03;17.83;;;;;;;7.55;100.00;98664.34;4938105;28;20463;-71
2021/10/18 02:57:36;;;;;;;19.03;17.13;;;;;;;7.60;100.00;98663.00;4970679;28;20708;-70
2021/10/18 03:00:06;;;;;;;18.07;16.17;;;;;;;7.55;100.00;98659.91;4957453;28;20839;-69
2021/10/18 03:02:34;;;;;;;21.80;18.67;;;;;;;7.56;100.00;98673.94;4961583;28;20234;-70
2021/10/18 03:05:04;;;;;;;21.00;18.80;;;;;;;7.56;100.00;98677.41;4958907;28;20229;-69
2021/10/18 03:07:32;;;;;;;21.07;18.83;;;;;;;7.58;100.00;98680.78;4973625;28;20209;-70
2021/10/18 03:10:00;;;;;;;21.57;19.30;;;;;;;7.59;100.00;98684.22;4923634;28;20229;-70
2021/10/18 03:12:28;;;;;;;23.43;20.20;;;;;;;7.60;100.00;98685.91;4974166;28;20209;-68
2021/10/18 03:14:56;;;;;;;21.73;18.93;;;;;;;7.63;100.00;98689.13;4975720;28;20821;-69
2021/10/18 03:17:24;;;;;;;23.07;20.53;;;;;;;7.61;100.00;98693.69;4950030;28;20230;-68
2021/10/18 03:19:52;;;;;;;20.33;18.13;;;;;;;7.62;100.00;98689.25;4974995;28;20756;-70
2021/10/18 03:22:21;;;;;;;22.67;19.43;;;;;;;7.60;100.00;98691.19;4977275;28;20218;-69
2021/10/18 03:24:49;;;;;;;22.07;19.53;;;;;;;7.59;100.00;98694.78;4941242;28;20587;-69
2021/10/18 03:27:17;;;;;;;24.10;19.30;;;;;;;7.61;100.00;98695.50;4974803;28;20764;-70
2021/10/18 03:29:45;;;;;;;27.43;21.90;;;;;;;7.67;100.00;98698.47;4974311;28;20201;-69
2021/10/18 03:32:13;;;;;;;29.07;23.23;;;;;;;7.67;100.00;98687.06;4949477;28;20217;-70
2021/10/18 03:34:41;;;;;;;26.47;22.03;;;;;;;7.72;100.00;98698.06;4975574;28;20422;-69
2021/10/18 03:37:09;;;;;;;28.57;22.23;;;;;;;7.68;100.00;98697.50;4976019;28;20232;-69
2021/10/18 03:39:39;;;;;;;25.53;21.40;;;;;;;7.71;100.00;98699.03;4943865;28;20209;-69
2021/10/18 03:42:08;;;;;;;25.57;21.67;;;;;;;7.73;100.00;98694.44;4974680;28;20209;-71
2021/10/18 03:44:36;;;;;;;26.20;20.97;;;;;;;7.85;100.00;98699.69;4975303;28;20248;-69
2021/10/18 03:47:04;;;;;;;22.33;19.80;;;;;;;7.78;100.00;98702.84;4960771;28;20792;-70
2021/10/18 03:49:32;;;;;;;24.40;19.73;;;;;;;7.78;100.00;98702.84;4960517;28;20578;-69
2021/10/18 03:52:00;;;;;;;25.27;19.73;;;;;;;7.77;100.00;98698.53;4977829;28;20658;-70
2021/10/18 03:54:28;;;;;;;25.07;20.53;;;;;;;7.78;100.00;98702.00;4976089;28;20229;-69
2021/10/18 03:56:57;;;;;;;28.23;21.17;;;;;;;7.83;100.00;98699.81;4940684;28;20386;-68
2021/10/18 03:59:25;;;;;;;22.93;20.30;;;;;;;7.87;100.00;98705.69;4973249;28;20206;-69
2021/10/18 04:01:53;;;;;;;24.40;21.57;;;;;;;7.82;100.00;98706.06;4959552;28;20218;-70
2021/10/18 04:04:22;;;;;;;26.80;21.37;;;;;;;7.81;100.00;98713.16;4959576;28;20471;-69
2021/10/18 04:06:50;;;;;;;23.83;20.33;;;;;;;7.82;100.00;98711.31;4958435;28;20393;-70
2021/10/18 04:09:18;;;;;;;25.73;21.37;;;;;;;7.85;100.00;98721.63;4976519;28;20213;-70
2021/10/18 04:11:46;;;;;;;28.40;21.17;;;;;;;7.82;100.00;98719.25;4937739;28;20883;-70
2021/10/18 04:14:16;;;;;;;24.23;20.77;;;;;;;7.80;100.00;98721.19;4972558;28;20516;-69
2021/10/18 04:16:44;;;;;;;27.80;22.40;;;;;;;7.82;100.00;98729.81;4972974;28;20479;-68
2021/10/18 04:19:12;;;;;;;22.30;18.63;;;;;;;7.81;100.00;98728.97;4958570;28;20611;-71
2021/10/18 04:21:40;;;;;;;23.90;19.27;;;;;;;7.81;100.00;98746.59;4961278;28;20698;-68
2021/10/18 04:24:08;;;;;;;29.40;22.77;;;;;;;7.84;100.00;98748.16;4959349;28;20214;-70
2021/10/18 04:26:36;;;;;;;25.57;20.70;;;;;;;7.79;100.00;98745.88;4940622;28;20210;-69
2021/10/18 04:29:05;;;;;;;26.17;21.13;;;;;;;7.78;100.00;98744.22;4972421;28;20216;-69
2021/10/18 04:31:35;;;;;;;23.87;21.27;;;;;;;7.74;100.00;98746.25;4956213;28;20347;-66
2021/10/18 04:34:03;;;;;;;23.27;20.70;;;;;;;7.76;100.00;98746.97;4973780;28;20562;-69
2021/10/18 04:36:31;;;;;;;24.63;21.20;;;;;;;7.78;100.00;98750.34;4945108;28;20206;-67
2021/10/18 04:38:59;;;;;;;22.70;19.30;;;;;;;7.90;100.00;98750.28;4972386;28;20661;-69
2021/10/18 04:41:27;;;;;;;22.57;19.30;;;;;;;7.82;100.00;98754.41;4958831;28;20216;-67
2021/10/18 04:43:55;;;;;;;24.00;19.83;;;;;;;7.84;100.00;98761.34;4956614;28;20296;-68
2021/10/18 04:46:23;;;;;;;22.70;20.10;;;;;;;7.85;100.00;98771.75;4937038;28;20248;-67
2021/10/18 04:48:53;;;;;;;23.97;20.60;;;;;;;7.84;100.00;98772.72;4955419;28;20522;-68
2021/10/18 04:51:21;;;;;;;22.90;20.17;;;;;;;7.89;100.00;98780.28;4972256;28;20206;-68
2021/10/18 04:53:49;;;;;;;24.67;21.57;;;;;;;7.84;100.00;98782.47;4945088;28;23338;-70
2021/10/18 04:56:17;;;;;;;24.77;21.03;;;;;;;7.84;100.00;98780.66;4969334;28;20317;-68
2021/10/18 04:58:45;;;;;;;28.97;20.80;;;;;;;7.82;100.00;98782.56;4965753;28;20406;-67
2021/10/18 05:01:13;;;;;;;24.40;21.30;;;;;;;7.81;100.00;98780.91;4958267;28;20214;-69
2021/10/18 05:03:41;;;;;;;27.10;22.87;;;;;;;7.82;100.00;98785.22;4934895;28;20213;-67
2021/10/18 05:06:10;;;;;;;28.27;22.33;;;;;;;7.85;100.00;98781.50;4957341;28;20230;-68
2021/10/18 05:08:38;;;;;;;25.50;20.73;;;;;;;7.90;100.00;98782.78;4956982;28;20214;-71
2021/10/18 05:11:06;;;;;;;27.90;23.33;;;;;;;7.92;100.00;98777.38;4969124;28;20224;-67
2021/10/18 05:13:35;;;;;;;27.33;22.30;;;;;;;7.95;100.00;98780.63;4958038;28;20280;-68
2021/10/18 05:16:03;;;;;;;24.93;22.07;;;;;;;7.97;100.00;98777.81;4973829;28;20225;-68
2021/10/18 05:18:31;;;;;;;25.10;22.40;;;;;;;8.02;100.00;98780.91;4926512;28;20462;-69
2021/10/18 05:21:00;;;;;;;26.30;21.83;;;;;;;8.05;100.00;98779.84;4972789;28;20218;-69
2021/10/18 05:23:29;;;;;;;26.67;22.80;;;;;;;7.94;100.00;98786.81;4947373;28;20442;-67
2021/10/18 05:26:00;;;;;;;26.17;21.20;;;;;;;7.91;100.00;98781.81;4973713;28;20285;-70
2021/10/18 05:28:29;;;;;;;25.53;21.13;;;;;;;8.03;100.00;98793.16;4956382;28;20213;-68
2021/10/18 05:30:56;;;;;;;27.23;22.07;;;;;;;7.94;100.00;98791.28;4974943;28;20205;-68
2021/10/18 05:33:24;;;;;;;25.10;21.57;;;;;;;7.91;100.00;98792.38;4939725;28;20556;-66
2021/10/18 05:35:52;;;;;;;26.10;21.00;;;;;;;7.92;100.00;98787.94;4956160;28;20539;-70
2021/10/18 05:38:23;;;;;;;27.03;21.80;;;;;;;7.98;100.00;98795.34;4971614;28;20544;-70
2021/10/18 05:40:53;;;;;;;25.60;21.57;;;;;;;7.90;100.00;98793.31;4948642;28;20678;-71
2021/10/18 05:43:21;;;;;;;27.90;21.00;;;;;;;7.88;100.00;98795.25;4968490;28;20214;-70
2021/10/18 05:45:49;;;;;;;25.53;21.47;;;;;;;7.86;100.00;98799.81;4971477;28;20307;-70
2021/10/18 05:48:18;;;;;;;27.03;20.23;;;;;;;7.79;100.00;98796.88;4922189;28;20253;-71
2021/10/18 05:50:47;;;;;;;27.43;21.27;;;;;;;7.85;100.00;98802.59;4972963;28;20197;-69
2021/10/18 05:53:15;;;;;;;26.17;22.20;;;;;;;7.78;100.00;98797.84;4955980;28;20571;-69
2021/10/18 05:55:43;;;;;;;25.77;22.03;;;;;;;7.77;100.00;98805.88;4961489;28;20509;-71
2021/10/18 05:58:12;;;;;;;25.27;21.67;;;;;;;7.76;100.00;98815.56;4952907;28;20226;-71
2021/10/18 06:00:42;;;;;;;27.37;21.83;;;;;;;7.95;100.00;98822.84;4964694;28;20502;-70
2021/10/18 06:03:10;;;;;;;27.57;22.37;;;;;;;7.97;100.00;98825.34;4938112;28;20544;-69
2021/10/18 06:05:43;;;;;;;27.80;23.43;;;;;;;8.01;100.00;98826.75;4954756;28;20403;-70
2021/10/18 06:08:12;;;;;;;27.40;22.93;;;;;;;7.90;100.00;98825.00;4966931;28;20208;-70
2021/10/18 06:10:41;;;;;;;27.23;21.27;;;;;;;7.86;100.00;98828.03;4949502;28;20996;-67
2021/10/18 06:13:10;;;;;;;27.80;22.10;;;;;;;7.80;100.00;98832.84;4963997;28;20220;-70
2021/10/18 06:15:40;;;;;;;27.83;23.40;;;;;;;7.84;100.00;98843.97;4972312;28;20225;-71
2021/10/18 06:18:09;;;;;;;26.37;21.33;;;;;;;7.80;100.00;98842.56;4936648;28;20233;-70
2021/10/18 06:20:37;;;;;;;22.77;20.03;;;;;;;7.84;100.00;98861.63;4964357;28;20220;-71
2021/10/18 06:23:05;;;;;;;26.70;21.83;;;;;;;7.76;100.00;98865.69;4951753;28;20823;-70
2021/10/18 06:25:34;;;;;;;27.90;22.70;;;;;;;7.77;100.00;98866.56;4974040;28;20570;-73
2021/10/18 06:28:02;;;;;;;28.77;22.83;;;;;;;7.83;100.00;98858.13;4959741;28;20221;-71
2021/10/18 06:30:30;;;;;;;27.70;22.87;;;;;;;7.80;100.00;98871.59;4956784;28;20407;-71
2021/10/18 06:33:00;;;;;;;30.57;23.70;;;;;;;7.76;100.00;98864.88;4966075;28;20206;-70
2021/10/18 06:35:28;;;;;;;27.80;22.80;;;;;;;7.74;100.00;98875.53;4929623;28;20639;-70
2021/10/18 06:37:56;;;;;;;29.67;23.27;;;;;;;7.73;100.00;98863.31;4961374;28;20220;-69
2021/10/18 06:40:24;;;;;;;27.90;24.17;;;;;;;7.95;100.00;98870.34;4958054;28;20656;-67
2021/10/18 06:42:52;;;;;;;24.27;20.40;;;;;;;7.89;100.00;98867.38;4967130;28;20221;-70
2021/10/18 06:45:20;;;;;;;29.13;22.13;;;;;;;7.86;100.00;98862.34;4961665;28;20468;-68
2021/10/18 06:47:48;;;;;;;27.87;22.23;;;;;;;7.90;100.00;98864.59;4960230;28;20213;-69
2021/10/18 06:50:17;;;;;;;27.17;21.27;;;;;;;8.18;100.00;98866.78;4938380;28;20645;-70
2021/10/18 06:52:45;;;;;;;26.13;23.10;;;;;;;8.15;100.00;98869.69;4982727;28;20205;-71
2021/10/18 06:55:16;;;;;;;27.60;22.57;;;;;;;8.33;100.00;98873.41;4938062;28;20253;-71
2021/10/18 06:57:44;;;;;;;26.07;22.50;;;;;;;8.43;100.00;98880.56;4958740;28;20205;-71
2021/10/18 07:00:13;;;;;;;28.63;22.27;;;;;;;8.49;100.00;98882.69;4960195;28;20244;-70
2021/10/18 07:02:41;;;;;;;27.33;20.97;;;;;;;8.67;100.00;98886.47;4962716;28;20862;-70
2021/10/18 07:05:09;;;;;;;27.40;20.80;;;;;;;8.68;100.00;98887.28;4956510;28;20554;-70
2021/10/18 07:07:39;;;;;;;26.90;21.57;;;;;;;8.54;100.00;98893.75;4974444;28;20202;-70
2021/10/18 07:10:07;;;;;;;27.07;20.40;;;;;;;8.36;100.00;98896.09;4935911;28;20777;-71
2021/10/18 07:12:36;;;;;;;25.50;21.60;;;;;;;8.26;100.00;98901.31;4975541;28;20206;-70
2021/10/18 07:15:06;;;;;;;25.23;20.50;;;;;;;8.32;100.00;98911.34;4972270;28;20253;-68
2021/10/18 07:17:35;;;;;;;24.17;21.33;;;;;;;8.41;100.00;98920.31;4964307;28;20214;-71
2021/10/18 07:20:05;;;;;;;25.30;20.73;;;;;;;8.28;100.00;98924.94;4972903;28;20229;-71
2021/10/18 07:22:41;;;;;;;27.53;21.57;;;;;;;8.39;100.00;98920.44;4978001;28;20216;-71
2021/10/18 07:25:13;;;;;;;25.40;21.33;;;;;;;8.44;100.00;98916.56;4974485;28;20530;-71
2021/10/18 07:27:43;;;;;;;25.87;20.30;;;;;;;8.45;100.00;98921.75;4922163;28;20686;-70
2021/10/18 07:30:12;;;;;;;24.07;20.37;;;;;;;8.49;100.00;98925.84;4973414;28;20229;-70
2021/10/18 07:32:43;;;;;;;24.97;21.03;;;;;;;8.60;100.00;98932.03;4926444;28;20241;-69
2021/10/18 07:35:12;;;;;;;24.40;20.60;;;;;;;8.75;100.00;98924.63;4950833;28;20215;-71
2021/10/18 07:37:40;;;;;;;26.47;21.40;;;;;;;8.56;100.00;98920.03;4940057;28;20214;-70
2021/10/18 07:40:13;;;;;;;27.13;21.67;;;;;;;8.62;100.00;98927.44;4939532;28;20222;-72
2021/10/18 07:42:41;;;;;;;28.87;21.77;;;;;;;8.54;100.00;98936.03;4920992;28;20226;-70
2021/10/18 07:45:10;;;;;;;30.00;21.07;;;;;;;8.51;100.00;98937.13;4939553;28;20230;-70
2021/10/18 07:47:39;;;;;;;25.07;20.63;;;;;;;8.59;100.00;98931.19;4930857;28;20564;-70
2021/10/18 07:50:10;;;;;;;26.30;20.83;;;;;;;8.56;100.00;98934.09;4952678;28;20213;-71
2021/10/18 07:52:38;;;;;;;25.70;21.20;;;;;;;8.62;100.00;98938.88;4924326;28;20222;-70
2021/10/18 07:55:12;;;;;;;25.40;19.83;;;;;;;8.63;100.00;98935.25;4953557;28;20326;-70
2021/10/18 07:57:42;;;;;;;27.47;19.70;;;;;;;8.76;100.00;98939.50;4908444;28;20609;-69
2021/10/18 08:00:12;;;;;;;30.23;21.20;;;;;;;8.66;100.00;98942.94;4951419;28;20418;-71
2021/10/18 08:02:40;;;;;;;26.03;19.37;;;;;;;8.62;100.00;98943.28;4942647;28;20214;-69
2021/10/18 08:05:15;;;;;;;25.37;20.10;;;;;;;8.54;100.00;98943.97;4954796;28;20234;-70
2021/10/18 08:07:45;;;;;;;26.13;20.83;;;;;;;8.80;100.00;98939.13;4927386;28;20233;-70
2021/10/18 08:10:15;;;;;;;24.60;18.47;;;;;;;8.76;100.00;98935.06;4957585;28;20230;-71
2021/10/18 08:12:46;;;;;;;27.80;21.57;;;;;;;8.86;100.00;98934.28;4920826;28;20629;-70
2021/10/18 08:15:14;;;;;;;23.40;18.30;;;;;;;8.76;100.00;98936.84;4953268;28;20234;-71
2021/10/18 08:17:42;;;;;;;28.83;21.83;;;;;;;8.73;100.00;98940.63;4953749;28;20210;-70
2021/10/18 08:20:10;;;;;;;28.97;21.37;;;;;;;8.64;100.00;98947.50;4926891;28;20230;-72
2021/10/18 08:22:38;;;;;;;26.10;21.17;;;;;;;8.80;100.00;98944.41;4935489;28;20659;-69
2021/10/18 08:25:08;;;;;;;28.37;22.53;;;;;;;8.74;100.00;98942.28;4954711;28;20222;-71
2021/10/18 08:27:36;;;;;;;27.37;19.97;;;;;;;8.72;100.00;98940.72;4922451;28;20202;-70
2021/10/18 08:30:07;;;;;;;27.83;22.00;;;;;;;8.79;100.00;98939.25;4942522;28;20650;-72
2021/10/18 08:32:36;;;;;;;26.53;20.07;;;;;;;8.68;100.00;98935.72;4938726;28;20218;-71
2021/10/18 08:35:07;;;;;;;27.93;20.87;;;;;;;8.57;100.00;98934.91;4924359;28;20227;-73
2021/10/18 08:40:20;;;;;;;28.50;20.57;;;;;;;8.76;100.00;98936.84;4936904;28;20238;-70
2021/10/18 08:42:57;;;;;;;26.43;21.03;;;;;;;8.95;100.00;98938.78;4951826;28;20214;-71
2021/10/18 08:45:27;;;;;;;29.00;20.67;;;;;;;8.86;100.00;98931.63;4921943;28;20750;-70
2021/10/18 08:47:55;;;;;;;32.27;21.97;;;;;;;8.91;100.00;98937.38;4951866;28;20230;-71
2021/10/18 08:50:24;;;;;;;27.27;19.80;;;;;;;9.07;100.00;98942.19;4936541;28;20205;-70
2021/10/18 08:52:53;;;;;;;24.87;20.40;;;;;;;9.14;100.00;98931.94;4953599;28;20217;-72
2021/10/18 08:55:21;;;;;;;27.60;20.37;;;;;;;9.12;100.00;98946.13;4931793;28;20452;-69
2021/10/18 08:57:49;;;;;;;27.07;18.60;;;;;;;9.17;100.00;98950.19;4954240;28;20210;-72
2021/10/18 09:00:38;;;;;;;26.87;20.43;;;;;;;9.36;100.00;98941.50;4916862;28;20237;-72
2021/10/18 09:03:20;;;;;;;25.07;19.37;;;;;;;9.33;100.00;98947.06;4911181;28;20581;-71
2021/10/18 09:05:49;;;;;;;27.63;19.73;;;;;;;9.44;100.00;98960.19;4950020;28;20370;-73
2021/10/18 09:08:37;;;;;;;23.50;18.27;;;;;;;9.53;100.00;98948.81;4951046;28;20532;-72
2021/10/18 09:11:06;;;;;;;24.63;18.87;;;;;;;9.66;100.00;98948.56;4937673;28;20221;-70
2021/10/18 09:13:36;;;;;;;25.40;19.17;;;;;;;9.72;100.00;98941.06;4951052;28;20696;-72
2021/10/18 09:16:05;;;;;;;24.13;19.33;;;;;;;9.65;100.00;98953.97;4939948;28;20683;-71
2021/10/18 09:18:33;;;;;;;27.53;20.07;;;;;;;9.44;100.00;98954.91;4920330;28;20725;-73
2021/10/18 09:21:06;;;;;;;22.97;18.60;;;;;;;9.52;100.00;98952.41;4940402;28;20226;-71
2021/10/18 09:23:37;;;;;;;25.10;18.33;;;;;;;9.58;100.00;98963.44;4952248;28;20371;-70
2021/10/18 09:26:08;;;;;;;25.27;19.43;;;;;;;9.59;100.00;98958.03;4940187;28;20234;-71
2021/10/18 09:28:37;;;;;;;23.63;18.03;;;;;;;9.55;100.00;98959.25;4940987;28;20563;-73
2021/10/18 09:31:16;;;;;;;24.60;17.77;;;;;;;9.45;100.00;98959.22;4953460;28;20203;-70
2021/10/18 09:33:48;;;;;;;23.70;17.47;;;;;;;9.67;100.00;98962.66;4907787;28;20221;-72
2021/10/18 09:36:22;;;;;;;25.00;18.93;;;;;;;9.80;100.00;98960.59;4948837;28;20237;-72
2021/10/18 09:38:50;;;;;;;27.07;18.40;;;;;;;9.97;100.00;98969.69;4953120;28;20221;-72
2021/10/18 09:41:24;;;;;;;26.47;18.67;;;;;;;10.10;100.00;98965.94;4937733;28;20230;-72
2021/10/18 09:43:59;;;;;;;24.97;18.17;;;;;;;10.05;100.00;98974.31;4953877;28;20210;-71
2021/10/18 09:46:37;;;;;;;25.23;18.43;;;;;;;10.12;100.00;98972.78;4939776;28;20206;-73
2021/10/18 10:51:30;;;;;;;20.87;17.80;;;;;;;11.76;100.00;98941.94;4912995;28;20389;-73
2021/10/18 10:54:02;;;;;;;19.70;17.60;;;;;;;11.65;100.00;98949.09;4940877;28;20588;-72
2021/10/18 10:56:37;;;;;;;20.23;17.63;;;;;;;11.76;100.00;98953.38;4957225;28;20229;-71
2021/10/18 10:59:18;;;;;;;27.27;17.93;;;;;;;12.01;100.00;98943.09;4943524;28;20378;-72
2021/10/18 11:01:58;;;;;;;22.03;18.07;;;;;;;12.25;100.00;98934.50;4953804;28;20230;-70
2021/10/18 11:04:54;;;;;;;18.53;16.60;;;;;;;12.44;100.00;98930.00;4935867;28;20253;-72
2021/10/18 11:07:53;;;;;;;19.10;16.40;;;;;;;12.37;100.00;98929.81;4909901;28;20226;-71
2021/10/18 11:10:27;;;;;;;18.23;16.20;;;;;;;12.33;100.00;98928.44;4942410;28;20210;-72
2021/10/18 11:13:06;;;;;;;18.27;16.37;;;;;;;12.42;100.00;98927.53;4953828;28;20217;-70
2021/10/18 11:15:34;;;;;;;20.47;17.70;;;;;;;12.55;100.00;98929.81;4938096;28;20768;-71
2021/10/18 11:18:02;;;;;;;18.93;16.50;;;;;;;12.28;100.00;98920.91;4951064;28;20618;-72
2021/10/18 11:20:30;;;;;;;19.53;17.23;;;;;;;12.38;100.00;98922.66;4926310;28;20233;-69
2021/10/18 11:22:59;;;;;;;18.40;16.53;;;;;;;12.20;100.00;98917.34;4954275;28;20211;-71
2021/10/18 11:25:31;;;;;;;16.77;14.90;;;;;;;12.65;100.00;98915.56;4905235;28;20238;-71
2021/10/18 11:28:01;;;;;;;21.40;16.17;;;;;;;13.12;100.00;98904.56;4954508;28;20242;-72
2021/10/18 11:30:31;;;;;;;19.93;17.17;;;;;;;13.40;100.00;98912.34;4946916;28;20209;-72
2021/10/18 11:33:02;;;;;;;20.47;16.37;;;;;;;13.10;100.00;98919.03;4958003;28;20207;-70
2021/10/18 11:35:32;;;;;;;17.20;15.43;;;;;;;13.18;100.00;98908.44;4950253;28;20230;-70
2021/10/18 11:38:01;;;;;;;18.63;16.73;;;;;;;13.31;100.00;98908.81;4942818;28;20221;-72
2021/10/18 11:40:33;;;;;;;18.67;16.60;;;;;;;13.15;100.00;98906.09;4913718;28;20222;-70
2021/10/18 11:43:03;;;;;;;16.57;14.80;;;;;;;13.32;100.00;98915.81;4934312;28;20221;-73
2021/10/18 11:45:33;;;;;;;16.87;14.77;;;;;;;13.27;100.00;98910.13;4946959;28;20250;-71
2021/10/18 11:48:06;;;;;;;16.93;15.17;;;;;;;13.40;100.00;98908.84;4950638;28;20222;-72
2021/10/18 11:50:37;;;;;;;16.47;14.80;;;;;;;13.49;100.00;98918.59;4934760;28;20218;-71
2021/10/18 11:53:16;;;;;;;15.23;13.63;;;;;;;13.79;100.00;98910.19;4941249;28;20210;-72
2021/10/18 11:55:48;;;;;;;17.50;14.37;;;;;;;14.01;100.00;98916.75;4922730;28;20261;-72
2021/10/18 11:58:18;;;;;;;15.83;14.23;;;;;;;14.48;100.00;98917.97;4954246;28;20262;-71
2021/10/18 12:00:47;;;;;;;15.20;13.00;;;;;;;14.42;100.00;98922.13;4940511;28;21020;-72
2021/10/18 12:03:17;;;;;;;14.13;12.63;;;;;;;14.79;100.00;98914.66;4954025;28;20679;-71
2021/10/18 12:05:47;;;;;;;15.23;13.60;;;;;;;15.43;100.00;98916.47;4953292;28;20600;-72
2021/10/18 12:08:17;;;;;;;13.70;12.30;;;;;;;15.68;100.00;98915.53;4940480;28;20315;-71
2021/10/18 12:10:48;;;;;;;15.30;13.80;;;;;;;15.33;100.00;98908.66;4909240;28;20817;-71
2021/10/18 12:13:24;;;;;;;14.57;13.07;;;;;;;15.30;100.00;98913.53;4924902;28;20234;-71
2021/10/18 12:16:08;;;;;;;13.93;12.53;;;;;;;15.76;100.00;98920.88;4946609;28;20222;-72
2021/10/18 12:18:42;;;;;;;15.00;13.40;;;;;;;15.27;100.00;98913.88;4926576;28;20350;-72
2021/10/18 12:21:11;;;;;;;13.70;12.30;;;;;;;15.33;100.00;98916.66;4949438;28;20294;-74
2021/10/18 12:23:48;;;;;;;12.30;11.00;;;;;;;15.53;100.00;98912.75;4941077;28;20218;-72
2021/10/18 12:26:20;;;;;;;12.17;11.07;;;;;;;15.90;93.45;98904.09;4923408;28;20238;-71
2021/10/18 12:28:50;;;;;;;15.10;12.83;;;;;;;15.91;91.51;98902.28;4946232;28;20428;-71
2021/10/18 12:31:37;;;;;;;15.33;13.00;;;;;;;16.02;91.41;98903.69;4939487;28;20229;-70
2021/10/18 12:34:17;;;;;;;12.83;11.53;;;;;;;16.34;87.52;98893.78;4950597;28;21417;-71